• Join FlightAware (Why Join?)
  • Login
  • US Flag 
11:32AM EDT


 

Airport Tracker/Info


-or-


 

Live Flight TrackerFlight Track Log ✈ SWA4232 ✈ 28-Dec-2013 ✈ KRDU - KDEN

Flight Track Log - Related Links

Times and Time Zones

All times are in EST time to prevent confusion due to time zone crossing. See the SWA4232 flight status page for this flight to view local times or setup timezone preferences in your user account.

Time Position Orientation Groundspeed Altitude Reporting Facility
EST Latitude Longitude Course Direction KTS MPH feet Rate Location/Type
10:49AM 35.8347 -78.8331 223° Southwest 166 191 2,600  Level Washington Center
10:50AM 35.8039 -78.8933 238° Southwest 229 264 5,300 1,860 Climbing Washington Center
10:51AM 35.8114 -78.9961 275° West 282 325 7,000 1,860 Climbing Washington Center
10:52AM 35.8192 -79.0861 276° West 289 333 9,700 2,400 Climbing Washington Center
10:53AM 35.8283 -79.1992 276° West 292 336 11,900 1,140 Climbing Washington Center
10:54AM 36.0870 -79.5537 289° West  Level Estimated
10:54AM 35.8333 -79.3069 273° West 338 389 12,000  Level Washington Center
10:55AM 35.8250 -79.4372 266° West 347 399 13,000 2,040 Climbing Washington Center
10:56AM 35.8175 -79.5419 265° West 347 399 16,100 2,760 Climbing Washington Center
10:57AM 35.7892 -79.6867 256° West 374 430 19,000 2,460 Climbing Atlanta Center
10:58AM 35.7686 -79.8108 259° West 374 430 21,500 2,580 Climbing Atlanta Center
10:59AM 35.7439 -79.9503 258° West 380 437 24,200 2,280 Climbing Atlanta Center
11:00AM 35.7192 -80.0844 257° West 385 443 26,100 1,800 Climbing Atlanta Center
11:01AM 35.6964 -80.2183 258° West 397 457 27,900 1,920 Climbing Atlanta Center
11:02AM 35.6733 -80.3525 258° West 402 463 30,000 1,020 Climbing Atlanta Center
11:03AM 35.6561 -80.4758 260° West 388 447 30,000  Level Atlanta Center
11:04AM 35.6619 -80.6033 273° West 382 440 30,000 420 Level Atlanta Center
11:05AM 35.6694 -80.7311 274° West 377 434 30,900 1,440 Climbing Atlanta Center
11:06AM 35.6769 -80.8558 274° West 372 428 32,900 1,920 Climbing Atlanta Center
11:07AM 35.6864 -80.9808 275° West 372 428 34,800 1,680 Climbing Atlanta Center
11:08AM 35.6936 -81.1008 274° West 367 422 36,300 1,200 Climbing Atlanta Center
11:09AM 35.6964 -81.2233 272° West 362 417 37,200 780 Climbing Atlanta Center
11:10AM 35.7367 -81.3500 291° West 373 429 37,900 360 Climbing Atlanta Center
11:11AM 35.7664 -81.4692 287° West 373 429 38,000  Climbing Atlanta Center
11:12AM 35.8064 -81.5831 293° West 373 429 38,000  Level Atlanta Center
11:13AM 35.8442 -81.7000 292° West 368 423 38,000  Level Atlanta Center
11:14AM 35.8525 -81.8200 275° West 360 414 38,000  Level Atlanta Center
11:15AM 35.8547 -81.9431 271° West 360 414 38,000  Level Atlanta Center
11:16AM 35.8567 -82.0683 271° West 360 414 38,000  Level Atlanta Center
11:17AM 35.8628 -82.1861 274° West 360 414 38,000  Level Atlanta Center
11:18AM 35.8644 -82.2964 271° West 360 414 38,000  Level Atlanta Center
11:19AM 35.8683 -82.4269 272° West 355 409 38,000  Level Atlanta Center
11:20AM 35.8719 -82.5447 272° West 350 403 38,000  Level Atlanta Center
11:21AM 35.8753 -82.6625 272° West 342 394 38,000  Level Atlanta Center
11:22AM 35.8767 -82.7806 271° West 347 399 38,000  Level Atlanta Center
11:23AM 35.8797 -82.9008 272° West 347 399 38,000  Level Atlanta Center
11:24AM 35.8831 -83.0161 272° West 347 399 38,000  Level Atlanta Center
11:25AM 35.8861 -83.1367 272° West 347 399 38,000  Level Atlanta Center
11:26AM 35.8908 -83.2442 273° West 347 399 38,000  Level Atlanta Center
11:27AM 35.8958 -83.3594 273° West 347 399 38,000  Level Atlanta Center
11:28AM 35.8964 -83.4825 270° West 347 399 38,000  Level Atlanta Center
11:29AM 35.8989 -83.6003 272° West 347 399 38,000  Level Atlanta Center
11:30AM 35.9014 -83.7233 271° West 347 399 38,000  Level Atlanta Center
11:31AM 35.9039 -83.8414 272° West 347 399 38,000  Level Atlanta Center
11:32AM 35.9289 -83.9592 285° West 352 405 38,000  Level Atlanta Center
11:33AM 35.9747 -84.0669 298° West 350 403 38,000  Level Atlanta Center
11:34AM 36.0061 -84.1850 288° West 350 403 38,000  Level Atlanta Center
11:35AM 36.0372 -84.3006 288° West 355 409 38,000  Level Atlanta Center
11:36AM 36.0681 -84.4189 288° West 355 409 38,000  Level Atlanta Center
11:37AM 36.1011 -84.5322 290° West 355 409 38,000  Level Atlanta Center
11:39AM 36.1558 -84.7367 288° West 358 412 38,000  Level Memphis Center
11:40AM 36.1939 -84.8789 288° West 364 419 38,000  Level Memphis Center
11:41AM 36.2247 -84.9978 288° West 366 421 38,000  Level Memphis Center
11:42AM 36.2553 -85.1167 288° West 366 421 38,000  Level Memphis Center
11:43AM 36.2858 -85.2342 288° West 361 415 38,000  Level Memphis Center
11:44AM 36.3158 -85.3522 288° West 361 415 38,000  Level Memphis Center
11:45AM 36.3522 -85.4928 288° West 359 413 38,000  Level Memphis Center
11:46AM 36.3822 -85.6103 288° West 358 412 38,000  Level Memphis Center
11:47AM 36.4231 -85.7233 294° West 362 417 38,000  Level Memphis Center
11:48AM 36.4978 -85.8106 317° Northwest 385 443 38,000  Level Memphis Center
11:49AM 36.5936 -85.9181 318° Northwest 394 453 38,000  Level Memphis Center
11:51AM 36.6744 -86.0069 319° Northwest 389 448 38,000  Level Memphis Center
11:52AM 36.7539 -86.0942 319° Northwest 383 441 38,000  Level Memphis Center
11:53AM 36.8325 -86.1797 319° Northwest 376 433 38,000  Level Memphis Center
11:54AM 36.9108 -86.2653 319° Northwest 373 429 38,000  Level Memphis Center
11:55AM 36.9694 -86.3650 306° West 362 417 38,000  Level Memphis Center
11:56AM 36.9975 -86.5036 284° West 351 404 38,000  Level Memphis Center
11:57AM 37.0217 -86.6233 284° West 353 406 38,000  Level Memphis Center
11:58AM 37.0450 -86.7431 284° West 353 406 38,000  Level Memphis Center
11:59AM 37.0678 -86.8647 283° West 356 410 38,000  Level Memphis Center
12:00PM 37.0911 -86.9847 284° West 354 407 38,000  Level Memphis Center
12:01PM 37.1150 -87.1069 284° West 356 410 38,000  Level Memphis Center
12:02PM 37.1419 -87.2483 283° West 356 410 38,000  Level Memphis Center
12:03PM 37.1639 -87.3706 283° West 357 411 38,000  Level Memphis Center
12:04PM 37.1869 -87.4925 283° West 357 411 38,000  Level Memphis Center
12:05PM 37.2108 -87.6136 284° West 355 409 38,000  Level Memphis Center
12:06PM 37.2317 -87.7372 282° West 358 412 38,000  Level Memphis Center
12:07PM 37.2556 -87.8594 284° West 359 413 38,000  Level Memphis Center
12:08PM 37.2786 -87.9833 283° West 359 413 38,000  Level Memphis Center
12:09PM 37.2997 -88.1072 282° West 362 417 38,000  Level Memphis Center
12:10PM 37.3281 -88.2553 284° West 363 418 38,000  Level Memphis Center
12:11PM 37.3500 -88.3811 282° West 368 423 38,000  Level Memphis Center
12:12PM 37.3722 -88.5061 283° West 368 423 38,000  Level Memphis Center
12:13PM 37.3944 -88.6314 283° West 368 423 38,000  Level Memphis Center
12:14PM 37.4164 -88.7572 282° West 369 425 38,000  Level Memphis Center
12:15PM 37.4333 -88.8569 282° West 367 422 38,000 480 Level Memphis Center
12:16PM 37.4639 -89.0311 283° West 366 421 39,000 480 Climbing Memphis Center
12:17PM 37.4850 -89.1561 282° West 365 420 39,000  Level Memphis Center
12:18PM 37.5072 -89.2828 283° West 370 426 39,000  Level Memphis Center
12:19PM 37.5303 -89.4097 283° West 371 427 39,000  Level Memphis Center
12:21PM 37.5503 -89.5394 281° West 374 430 39,000  Level Memphis Center
12:22PM 37.5764 -89.6931 282° West 375 432 39,000  Level Memphis Center
12:23PM 37.5972 -89.8206 282° West 373 429 39,000  Level Memphis Center
12:24PM 37.6192 -89.9483 282° West 373 429 39,000  Level Memphis Center
12:25PM 37.6397 -90.0764 281° West 373 429 39,000  Level Memphis Center
12:26PM 37.6611 -90.2042 282° West 374 430 39,000  Level Memphis Center
12:27PM 37.6914 -90.3911 282° West 377 434 39,000  Level Kansas City Center
12:28PM 37.7119 -90.5228 281° West 379 436 39,000  Level Kansas City Center
12:29PM 37.7328 -90.6553 281° West 381 438 39,000  Level Kansas City Center
12:30PM 37.7514 -90.7875 280° West 382 440 39,000  Level Kansas City Center
12:31PM 37.7531 -90.9217 271° West 383 441 39,000  Level Kansas City Center
12:32PM 37.7525 -91.0550 281° West 381 438 39,000  Level Kansas City Center
12:33PM 37.7812 -91.0991 281° West  Level FlightAware Approximate
12:34PM 37.7556 -91.3506 271° West 382 440 39,000  Level Kansas City Center
12:35PM 37.7558 -91.4883 270° West 386 444 39,000  Level Kansas City Center
12:36PM 37.7564 -91.6283 270° West 392 451 39,000  Level Kansas City Center
12:37PM 37.7669 -91.7681 276° West 408 470 39,000  Level Kansas City Center
12:38PM 37.7961 -91.9083 285° West 412 474 39,000  Level Kansas City Center
12:39PM 37.8236 -92.0486 284° West 410 472 39,000  Level Kansas City Center
12:40PM 37.8558 -92.2108 284° West 410 472 39,000  Level Kansas City Center
12:41PM 37.8811 -92.3492 283° West 408 470 39,000  Level Kansas City Center
12:43PM 37.9072 -92.4894 283° West 410 472 39,000  Level Kansas City Center
12:44PM 37.9353 -92.6281 284° West 409 471 39,000  Level Kansas City Center
12:45PM 37.9650 -92.7869 283° West 407 468 39,000  Level Kansas City Center
12:46PM 37.9914 -92.9297 283° West 411 473 39,000  Level Kansas City Center
12:47PM 38.0183 -93.0750 283° West 418 481 39,000  Level Kansas City Center
12:48PM 38.0458 -93.2192 284° West 419 482 39,000  Level Kansas City Center
12:49PM 38.0728 -93.3644 283° West 421 484 39,000  Level Kansas City Center
12:50PM 38.0994 -93.5108 283° West 424 488 39,000  Level Kansas City Center
12:51PM 38.1250 -93.6561 283° West 422 486 39,000  Level Kansas City Center
12:52PM 38.1564 -93.8311 283° West 423 487 39,000  Level Kansas City Center
12:53PM 38.1833 -93.9789 283° West 426 490 39,000  Level Kansas City Center
12:54PM 38.2081 -94.1144 283° West 427 491 39,000  Level Kansas City Center
12:55PM 38.2369 -94.2819 282° West 430 495 39,000  Level Kansas City Center
12:56PM 38.2597 -94.4242 282° West 430 495 39,000  Level Kansas City Center
12:57PM 38.2928 -94.5878 284° West 429 494 39,000  Level Kansas City Center
12:59PM 38.3614 -94.8906 286° West 428 493 39,000 -360 Level Kansas City Center
01:00PM 38.3917 -95.0308 285° West 430 495 38,000 -540 Descending Kansas City Center
01:01PM 38.4278 -95.1953 286° West 430 495 38,000  Level Kansas City Center
01:02PM 38.4583 -95.3378 285° West 434 499 38,000  Level Kansas City Center
01:03PM 38.4892 -95.4825 285° West 438 504 38,000  Level Kansas City Center
01:04PM 38.5256 -95.6500 286° West 436 502 38,000  Level Kansas City Center
01:05PM 38.5556 -95.7925 285° West 432 497 38,000  Level Kansas City Center
01:06PM 38.5900 -95.9575 285° West 430 495 38,000  Level Kansas City Center
01:07PM 38.6197 -96.1008 285° West 433 498 38,000  Level Kansas City Center
01:08PM 38.6550 -96.2689 285° West 436 502 38,000  Level Kansas City Center
01:09PM 38.6847 -96.4131 285° West 438 504 38,000  Level Kansas City Center
01:10PM 38.7192 -96.5806 285° West 435 501 38,000  Level Kansas City Center
01:11PM 38.7386 -96.7189 280° West 431 496 38,000  Level Kansas City Center
01:13PM 38.7436 -96.8717 272° West 431 496 38,000  Level Kansas City Center
01:14PM 38.7519 -97.0514 273° West 425 489 38,000  Level Kansas City Center
01:15PM 38.7572 -97.2033 273° West 426 490 38,000  Level Kansas City Center
01:16PM 38.7631 -97.3531 273° West 424 488 38,000  Level Kansas City Center
01:17PM 38.7689 -97.5036 273° West 425 489 38,000  Level Kansas City Center
01:18PM 38.7750 -97.6667 273° West 425 489 38,000  Level Kansas City Center
01:19PM 38.7800 -97.8125 273° West 429 494 38,000  Level Kansas City Center
01:20PM 38.7856 -97.9603 273° West 435 501 38,000  Level Kansas City Center
01:21PM 38.7914 -98.1458 272° West 437 503 38,000  Level Kansas City Center
01:22PM 38.7967 -98.3064 272° West 441 507 38,000  Level Kansas City Center
01:23PM 38.8011 -98.4572 272° West 438 504 38,000  Level Kansas City Center
01:24PM 38.8064 -98.6114 273° West 434 499 38,000  Level Kansas City Center
01:25PM 38.8106 -98.7650 272° West 434 499 38,000  Level Kansas City Center
01:26PM 38.8153 -98.9500 272° West 434 499 38,000  Level Kansas City Center
01:27PM 38.8183 -99.1031 272° West 431 496 38,000  Level Kansas City Center
01:28PM 38.8214 -99.2561 272° West 431 496 38,000  Level Kansas City Center
01:29PM 38.8236 -99.4103 271° West 433 498 38,000  Level Kansas City Center
01:30PM 38.8283 -99.5672 272° West 428 493 38,000  Level Kansas City Center
01:31PM 38.8308 -99.7381 271° West 429 494 38,000  Level Kansas City Center
01:32PM 38.8339 -99.8844 272° West 430 495 38,000  Level Kansas City Center
01:33PM 38.8353 -100.0542 271° West 428 493 38,000  Level Kansas City Center
01:34PM 38.8383 -100.1997 272° West 428 493 38,000  Level Kansas City Center
01:35PM 38.8397 -100.3694 271° West 427 491 38,000  Level Kansas City Center
01:36PM 38.8414 -100.4647 271° West 426 490 38,000  Level Denver Center
01:37PM 38.8433 -100.6303 271° West 421 484 38,000  Level Denver Center
01:38PM 38.8439 -100.7731 270° West 420 483 38,000  Level Denver Center
01:39PM 38.8453 -100.9381 271° West 418 481 38,000  Level Denver Center
01:40PM 38.8464 -101.0794 271° West 416 479 38,000  Level Denver Center
01:41PM 38.8483 -101.2450 271° West 417 480 38,000  Level Denver Center
01:42PM 38.8486 -101.3867 270° West 417 480 38,000 -360 Level Denver Center
01:43PM 38.8494 -101.5528 270° West 419 482 37,300 -1,080 Descending Denver Center
01:44PM 38.8494 -101.6944 270° West 417 480 35,800 -1,620 Descending Denver Center
01:45PM 38.8492 -101.8611 270° West 418 481 34,000 -900 Descending Denver Center
01:46PM 38.8464 -102.0050 269° West 422 486 34,000  Level Denver Center
01:47PM 38.8431 -102.1728 269° West 422 486 34,000 -420 Level Denver Center
01:48PM 38.8692 -102.3100 284° West 418 481 33,200 -840 Descending Denver Center
01:49PM 38.9117 -102.4453 292° West 427 491 32,300 -960 Descending Denver Center
01:50PM 38.9600 -102.6047 291° West 429 494 31,300 -1,020 Descending Denver Center
01:51PM 39.0033 -102.7469 291° West 422 486 30,300 -1,020 Descending Denver Center
01:53PM 39.0439 -102.8867 291° West 418 481 29,200 -1,020 Descending Denver Center
01:54PM 39.0864 -103.0233 292° West 412 474 28,200 -1,020 Descending Denver Center
01:55PM 39.1264 -103.1578 291° West 404 465 27,200 -1,080 Descending Denver Center
01:56PM 39.1728 -103.3147 291° West 393 452 26,000 -1,320 Descending Denver Center
01:57PM 39.2117 -103.4458 291° West 394 453 24,500 -1,740 Descending Denver Center
01:58PM 39.2486 -103.5708 291° West 378 435 22,500 -1,980 Descending Denver Center
01:59PM 39.2831 -103.6908 290° West 361 415 20,500 -1,920 Descending Denver Center
02:00PM 39.3331 -103.8019 300° West 359 413 18,500 -1,740 Descending Denver Center
02:01PM 39.3903 -103.9317 300° West 349 402 16,900 -1,260 Descending Denver Center
02:02PM 39.4136 -104.0522 284° West 346 398 16,000 -960 Descending Denver Center
02:03PM 39.4386 -104.1725 285° West 345 397 15,000 -1,020 Descending Denver Center
02:04PM 39.4639 -104.3022 284° West 343 395 13,900 -1,200 Descending Denver Center
02:05PM 39.4878 -104.4175 285° West 333 383 12,600 -1,620 Descending Denver Center
02:06PM 39.5333 -104.5211 300° West 327 376 10,600 -1,320 Descending Denver Center
02:07PM 39.6056 -104.5611 337° Northwest 287 330 9,900 -960 Descending Denver Center
02:08PM 39.6683 -104.5958 337° Northwest 227 261 8,700 -1,140 Descending Denver Center
02:09PM 39.7192 -104.6258 336° Northwest 195 224 7,600 -960 Descending Denver Center
02:10PM 39.7642 -104.6433 343° North 163 188 6,700 -720 Descending Denver Center
02:11PM 39.7950 -104.6422 North 148 170 6,200 -720 Descending Denver Center
02:12PM 39.8469 -104.6406 North 145 167 5,300 -900 Descending Denver Center
02:14PM 39.8500 -104.6667 North  Level FlightAware Approximate
02:21PM 39.8617 -104.6732 North  Level Estimated
02:22PM 39.8617 -104.6732 North  Level Estimated